MRPVMRLM

Guest
Details From MRPV - TOBIAS BOLANOS INTL
To MRLM - LIMON INTL
Flight Number -
Tags generated
Created
Modified
Stats Distance 66 nm / 123 km
Max Altitude 13,000 ft / 3,962 m
Waypoints 4
Social Downloads 2
Likes 0
Share VATSIM

Download

Looking for another format? Having issues loading an existing format? Contact us
Advertisement - Login to hide

Notes

Basic altitude profile: - Ascent Rate: 2500ft/min - Ascent Speed: 250kts - Cruise Altitude: 35000ft - Cruise Speed: 420kts - Descent Rate: 1500ft/min - Descent Speed: 250kts Options: - Use NATs: yes - Use PACOTS: yes - Use low airways: yes - Use high airways: yes

Route

MRPV CLARA B690 LIO MRLM

ID Type Via Altitude (ft/m) Position (lat/lon) Dist (leg/tot) Name
O MRPV APT - 0 / 0 9.95705 / -84.13980 - / 0 nm TOBIAS BOLANOS INTL
CLARA FIX - 8,700 / 2,652 9.97544 / -83.72392 24 / 24 nm
LIO VOR B690 (AWY-LO) 13,000 / 3,962 9.96314 / -83.02717 41 / 65 nm LIMON VOR-DME
O MRLM APT - 0 / 0 9.95796 / -83.02201 0 / 66 nm LIMON INTL

Altitude Profile

Advertisement - Login to hide

MRPV

Details ICAO MRPV (SYQ)
Name TOBIAS BOLANOS INTL
Region Costa Rica
Timezone America/Costa_Rica (UTC-6.0)
Stats Elevation 3,287 ft / 1,002 m (AMSL)
Location 9.957050° -84.139800°
Runways 1
Magnetic Variation 1.878° W

METAR

MRPV 232300Z 31004KT 9999 BKN010 SCT030 21/20 A2999 NOSIG

Decode

TAF

TAF TAF AMD MRPV 231900Z 2319/2418 11012KT 9999 FEW030 TX28/2317Z TN18/2409Z TEMPO 2320/2323 33006KT SCT025 TEMPO 2303/2418 11012G24KT

Decode

Departure Runways

ID Width Length Bearing (true/mag) Surface Threshold Overrun Markings Lighting
09 60 ft / 18 m 5,304 ft / 1,617 m 95.09° / 96.97° ASPHALT 200 ft / 61 m 0 ft / 0 m APP
27 60 ft / 18 m 5,304 ft / 1,617 m 275.10° / 276.97° ASPHALT 0 ft / 0 m 0 ft / 0 m APP

MRLM

Details ICAO MRLM (LIO)
Name Limon Int'l
Region Costa Rica
Timezone Unknown
Stats Elevation 7 ft / 2 m (AMSL)
Location 9.957960° -83.022000°
Runways 1
Magnetic Variation 2.549° W

METAR

MRLM 232300Z 11005KT 9999 SCT020 BKN240 28/23 A2983

Decode

TAF

MRLM 231700Z 2318/2418 06007KT 9999 FEW040 TX32/2319Z TN21/2311Z FM232300 VRB02KT 9999 SCT025 BKN090 TEMPO 2404/2413 25008KT 5000 RA BKN020

Decode

Destination Runways

ID Width Length Bearing (true/mag) Surface Threshold Overrun Markings Lighting
14 98 ft / 30 m 5,911 ft / 1,802 m 146.50° / 149.05° ASPHALT 0 ft / 0 m 0 ft / 0 m VISUAL EDGE THRESHOLD
32 98 ft / 30 m 5,911 ft / 1,802 m 326.50° / 329.05° ASPHALT 0 ft / 0 m 0 ft / 0 m VISUAL EDGE THRESHOLD

Popular Alternatives